Terminal Aerodrome Forecast
Issued by NWS

Home | Current Version | Previous Version | Graphics & Text | Print | Product List | Glossary On
Versions: 1 2 3 4 5 6 7 8 9 10 11 12 13 14 15 16 17 18
000
FTUS43 KICT 031126
TAFSLN
TAF
KSLN 031126Z 0312/0412 21019G27KT P6SM SCT020 BKN250
     FM031700 35022G32KT P6SM SCT035
     FM032300 02016G24KT P6SM SCT250=

USA.gov is the U.S. government's official web portal to all federal, state and local government web resources and services.